Time;durP1;ratioP1;P1;durP2;ratioP2;P2;SDS_P1;SDS_P2;PMS_P1;PMS_P2;Temp;Humidity;BMP_temperature;BMP_pressure;BME280_temperature;BME280_humidity;BME280_pressure;Samples;Min_cycle;Max_cycle;Signal;HPM_P1;HPM_P2
2022/05/12 00:00:36;;;;;;;17.13;6.23;;;;;;;38.99;42.87;101045.72;4973888;28;20429;-70
2022/05/12 00:03:05;;;;;;;19.80;7.07;;;;;;;38.98;43.28;101044.91;4973819;28;20505;-69
2022/05/12 00:05:31;;;;;;;18.50;7.00;;;;;;;38.87;43.51;101030.81;4975162;28;20407;-69
2022/05/12 00:07:57;;;;;;;11.70;4.93;;;;;;;38.85;43.81;101027.56;4975023;28;20399;-69
2022/05/12 00:10:25;;;;;;;13.50;5.70;;;;;;;38.89;43.60;101031.28;4973688;28;20450;-69
2022/05/12 00:12:52;;;;;;;18.93;6.00;;;;;;;38.79;43.84;101028.00;4973576;28;20453;-70
2022/05/12 00:15:28;;;;;;;10.10;5.87;;;;;;;38.84;43.36;101025.19;4973474;28;20545;-71
2022/05/12 00:17:54;;;;;;;21.77;7.73;;;;;;;38.94;43.39;101019.53;4973548;28;20511;-70
2022/05/12 00:20:22;;;;;;;16.93;6.83;;;;;;;39.10;42.99;101019.91;4973464;28;20430;-69
2022/05/12 00:22:49;;;;;;;24.27;9.43;;;;;;;39.10;43.13;101017.19;4974877;28;20477;-68
2022/05/12 00:25:21;;;;;;;17.47;6.57;;;;;;;39.13;43.22;101016.59;4957427;28;20445;-70
2022/05/12 00:27:47;;;;;;;18.40;6.70;;;;;;;39.03;43.46;101014.94;4973467;28;20457;-69
2022/05/12 00:30:14;;;;;;;24.53;9.20;;;;;;;39.07;43.56;101024.06;4973423;28;20450;-69
2022/05/12 00:32:44;;;;;;;17.07;6.90;;;;;;;39.00;44.08;101026.41;4973151;28;20430;-68
2022/05/12 00:35:11;;;;;;;18.93;8.07;;;;;;;39.10;43.19;101023.47;4957575;28;20462;-68
2022/05/12 00:37:38;;;;;;;22.60;7.70;;;;;;;38.96;42.64;101025.44;4957347;28;20423;-70
2022/05/12 00:40:05;;;;;;;8.90;5.47;;;;;;;38.87;42.30;101013.72;4973130;28;20427;-69
2022/05/12 00:42:31;;;;;;;13.13;5.63;;;;;;;38.99;42.35;101019.41;4972862;28;20613;-68
2022/05/12 00:44:57;;;;;;;26.27;7.97;;;;;;;38.93;42.67;101017.91;4973172;28;20421;-69
2022/05/12 00:47:23;;;;;;;23.77;7.57;;;;;;;39.01;42.54;101009.03;4972956;28;20788;-69
2022/05/12 00:49:53;;;;;;;21.60;8.57;;;;;;;38.97;42.31;101016.97;4973005;28;20937;-71
2022/05/12 00:52:23;;;;;;;14.97;6.10;;;;;;;38.72;43.13;101008.66;4956946;28;20858;-71
2022/05/12 00:54:57;;;;;;;12.30;6.10;;;;;;;38.76;42.80;101021.31;4972761;28;20458;-69
2022/05/12 00:57:39;;;;;;;10.63;6.63;;;;;;;38.80;42.62;101025.00;4972873;28;20522;-69
2022/05/12 01:00:09;;;;;;;13.57;6.27;;;;;;;38.80;42.82;101022.31;4972759;28;20426;-68
2022/05/12 01:02:36;;;;;;;13.03;6.57;;;;;;;38.66;43.15;101014.19;4972549;28;20446;-68
2022/05/12 01:05:04;;;;;;;12.77;5.00;;;;;;;38.70;42.99;101011.66;4972693;28;20426;-70
2022/05/12 01:07:30;;;;;;;18.77;7.00;;;;;;;38.75;42.31;101017.00;4972909;28;20414;-71
2022/05/12 01:09:56;;;;;;;13.20;5.50;;;;;;;38.72;41.90;101012.19;4972537;28;20422;-69
2022/05/12 01:12:24;;;;;;;10.63;4.93;;;;;;;38.74;42.99;101007.25;4972606;28;20419;-68
2022/05/12 01:14:50;;;;;;;14.67;5.77;;;;;;;38.73;42.58;101004.84;4972560;28;20536;-71
2022/05/12 01:17:17;;;;;;;16.53;5.80;;;;;;;38.58;42.77;101000.56;4972438;28;20430;-69
2022/05/12 01:19:43;;;;;;;9.10;4.77;;;;;;;38.63;42.79;100995.81;4972584;28;20422;-69
2022/05/12 01:22:27;;;;;;;11.43;5.97;;;;;;;38.62;43.04;100999.66;4956489;28;20846;-69
2022/05/12 01:24:53;;;;;;;13.10;6.57;;;;;;;38.65;43.14;100999.03;4972400;28;20416;-68
2022/05/12 01:27:20;;;;;;;16.67;6.20;;;;;;;38.62;43.11;100994.22;4972334;28;20514;-70
2022/05/12 01:29:51;;;;;;;15.87;5.60;;;;;;;38.63;43.26;101003.97;4973761;28;20410;-69
2022/05/12 01:32:19;;;;;;;14.03;5.90;;;;;;;38.49;43.61;101002.41;4972219;28;20426;-69
2022/05/12 01:34:46;;;;;;;13.20;7.23;;;;;;;38.64;43.62;100996.63;4956241;28;20521;-69
2022/05/12 01:37:12;;;;;;;15.87;6.80;;;;;;;38.55;43.18;100990.31;4956283;28;20426;-70
2022/05/12 01:39:39;;;;;;;20.93;6.80;;;;;;;38.44;43.81;100995.19;4972134;28;20430;-69
2022/05/12 01:42:08;;;;;;;10.07;5.50;;;;;;;38.69;43.03;100993.78;4972533;28;20419;-71
2022/05/12 01:44:35;;;;;;;10.90;5.67;;;;;;;38.65;43.22;100985.47;4975287;28;20905;-70
2022/05/12 01:47:03;;;;;;;11.47;5.27;;;;;;;38.83;43.20;100977.47;4992776;28;20937;-69
2022/05/12 01:49:29;;;;;;;17.80;8.27;;;;;;;38.90;42.73;100972.41;4975199;28;20799;-69
2022/05/12 01:51:56;;;;;;;12.00;5.30;;;;;;;38.80;42.75;100975.41;4975108;28;20425;-69
2022/05/12 01:54:23;;;;;;;14.37;6.00;;;;;;;38.83;42.52;100977.47;4992616;28;20456;-69
2022/05/12 01:56:50;;;;;;;10.90;4.93;;;;;;;39.02;41.96;100979.97;4992476;28;20764;-69
2022/05/12 01:59:18;;;;;;;18.90;7.87;;;;;;;39.09;42.29;100975.72;4975129;28;20436;-69
2022/05/12 02:01:45;;;;;;;17.10;6.33;;;;;;;38.90;42.64;100967.78;4975089;28;20973;-68
2022/05/12 02:04:11;;;;;;;10.23;4.33;;;;;;;38.81;42.71;100953.41;4992488;28;20398;-68
2022/05/12 02:06:37;;;;;;;9.60;7.23;;;;;;;38.85;42.41;100948.13;4974642;28;20996;-68
2022/05/12 02:09:06;;;;;;;17.43;7.00;;;;;;;38.93;42.55;100950.13;4974948;28;20417;-70
2022/05/12 02:11:32;;;;;;;17.93;7.10;;;;;;;38.91;43.31;100944.97;4974988;28;20792;-70
2022/05/12 02:13:58;;;;;;;20.17;7.30;;;;;;;38.73;43.47;100950.63;4992462;28;20449;-70
2022/05/12 02:16:27;;;;;;;16.53;6.70;;;;;;;38.83;42.67;100947.66;4974836;28;20429;-70
2022/05/12 02:18:54;;;;;;;20.13;6.67;;;;;;;39.00;42.31;100957.81;4992437;28;20405;-71
2022/05/12 02:21:21;;;;;;;11.30;5.47;;;;;;;38.90;42.86;100959.66;4974963;28;20440;-70
2022/05/12 02:23:47;;;;;;;15.77;6.47;;;;;;;38.80;43.06;100964.56;4992444;28;20412;-71
2022/05/12 02:26:14;;;;;;;14.17;6.30;;;;;;;38.95;42.99;100969.59;4974848;28;20441;-70
2022/05/12 02:28:41;;;;;;;22.87;6.80;;;;;;;38.87;42.95;100964.91;4958965;28;20452;-70
2022/05/12 02:31:07;;;;;;;11.87;5.90;;;;;;;38.86;42.51;100961.41;4992371;28;20952;-70
2022/05/12 02:33:33;;;;;;;14.00;6.93;;;;;;;38.87;42.54;100962.22;4974677;28;20456;-70
2022/05/12 02:36:02;;;;;;;13.83;5.83;;;;;;;38.88;42.70;100959.19;4974778;28;20483;-68
2022/05/12 02:38:28;;;;;;;14.57;6.70;;;;;;;38.93;42.45;100959.06;4992310;28;20402;-70
2022/05/12 02:40:55;;;;;;;15.07;5.40;;;;;;;38.99;42.38;100959.72;4974788;28;20814;-69
2022/05/12 02:43:24;;;;;;;14.13;5.77;;;;;;;38.91;42.34;100949.59;4971392;28;20474;-68
2022/05/12 02:45:51;;;;;;;15.03;5.27;;;;;;;38.82;42.71;100951.47;4955715;28;20462;-70
2022/05/12 02:48:34;;;;;;;21.33;5.93;;;;;;;38.56;42.74;100952.09;4971522;28;20430;-70
2022/05/12 02:51:00;;;;;;;21.20;5.50;;;;;;;38.57;42.99;100969.94;4971314;28;20457;-69
2022/05/12 02:53:28;;;;;;;13.40;5.37;;;;;;;38.63;42.30;100959.78;4971344;28;20472;-70
2022/05/12 02:55:54;;;;;;;12.33;4.53;;;;;;;38.48;42.79;100958.22;4971347;28;20469;-70
2022/05/12 02:58:20;;;;;;;13.37;4.93;;;;;;;38.55;42.96;100963.22;4955335;28;20430;-70
2022/05/12 03:00:47;;;;;;;16.70;6.63;;;;;;;38.48;43.40;100960.94;4955338;28;20938;-68
2022/05/12 03:03:14;;;;;;;12.40;5.50;;;;;;;38.52;42.78;100959.22;4971033;28;20485;-68
2022/05/12 03:05:41;;;;;;;9.37;5.00;;;;;;;38.57;42.49;100956.41;4972626;28;20432;-69
2022/05/12 03:08:09;;;;;;;12.30;6.37;;;;;;;38.68;42.56;100970.50;4971209;28;20812;-69
2022/05/12 03:10:36;;;;;;;25.23;7.20;;;;;;;38.55;42.62;100969.47;4971229;28;20454;-68
2022/05/12 03:13:03;;;;;;;18.73;4.77;;;;;;;38.64;42.43;100973.03;4971307;28;20422;-70
2022/05/12 03:15:30;;;;;;;9.80;5.50;;;;;;;38.64;42.38;100964.09;4971218;28;20480;-69
2022/05/12 03:17:57;;;;;;;11.93;5.63;;;;;;;38.64;42.47;100951.34;4955057;28;20962;-70
2022/05/12 03:20:25;;;;;;;12.07;6.00;;;;;;;38.66;42.64;100959.94;4974048;28;20422;-70
2022/05/12 03:22:51;;;;;;;11.37;5.10;;;;;;;38.74;42.64;100954.94;4958629;28;20983;-69
2022/05/12 03:25:19;;;;;;;12.50;4.93;;;;;;;38.72;42.60;100952.53;4958492;28;20476;-68
2022/05/12 03:27:45;;;;;;;10.63;4.50;;;;;;;38.75;42.34;100953.84;4974569;28;20426;-69
2022/05/12 03:30:16;;;;;;;16.83;5.67;;;;;;;38.76;42.17;100958.94;4974547;28;21072;-69
2022/05/12 03:32:43;;;;;;;11.10;5.90;;;;;;;38.68;42.26;100968.59;4974260;28;20828;-69
2022/05/12 03:35:09;;;;;;;12.57;5.93;;;;;;;38.70;42.09;100960.16;4974417;28;20462;-69
2022/05/12 03:37:36;;;;;;;11.87;4.50;;;;;;;38.66;42.05;100964.56;4974298;28;20487;-69
2022/05/12 03:40:04;;;;;;;19.77;5.87;;;;;;;38.65;42.16;100958.34;4975783;28;20545;-69
2022/05/12 03:42:30;;;;;;;12.33;5.63;;;;;;;38.81;41.91;100964.25;4974217;28;20525;-70
2022/05/12 03:44:59;;;;;;;9.23;4.80;;;;;;;38.92;41.89;100972.94;4958069;28;20427;-71
2022/05/12 03:47:33;;;;;;;11.50;5.07;;;;;;;38.81;42.09;100982.44;4974054;28;20517;-71
2022/05/12 03:50:08;;;;;;;11.20;4.97;;;;;;;38.92;42.08;100981.06;4974151;28;20462;-70
2022/05/12 03:52:35;;;;;;;14.30;6.93;;;;;;;38.96;42.10;100985.53;4973951;28;20848;-70
2022/05/12 03:55:01;;;;;;;13.40;6.80;;;;;;;39.02;42.07;100990.84;4973903;28;20474;-69
2022/05/12 03:57:28;;;;;;;13.87;5.40;;;;;;;39.01;42.01;100990.03;4973855;28;20437;-71
2022/05/12 03:59:55;;;;;;;16.87;8.10;;;;;;;39.03;41.83;100982.38;4975301;28;20493;-71
2022/05/12 04:02:22;;;;;;;16.57;5.97;;;;;;;39.11;41.62;100994.41;4973907;28;20516;-70
2022/05/12 04:04:49;;;;;;;19.70;7.70;;;;;;;38.99;41.85;100994.19;4973951;28;20418;-70
2022/05/12 04:07:19;;;;;;;14.40;6.67;;;;;;;38.95;41.85;100983.13;4975106;28;20923;-71
2022/05/12 04:09:45;;;;;;;16.30;7.20;;;;;;;38.92;41.88;100992.72;4973735;28;20863;-70
2022/05/12 04:12:11;;;;;;;15.70;5.50;;;;;;;38.75;42.05;100992.59;4973638;28;20484;-70
2022/05/12 04:14:39;;;;;;;18.70;8.43;;;;;;;38.83;41.42;100982.91;4973677;28;20991;-70
2022/05/12 04:17:07;;;;;;;14.30;5.90;;;;;;;38.83;41.78;100991.03;4973593;28;20429;-69
2022/05/12 04:19:33;;;;;;;12.37;6.17;;;;;;;38.85;41.63;100995.03;4973541;28;20850;-69
2022/05/12 04:21:59;;;;;;;15.43;5.77;;;;;;;38.94;42.26;101000.53;4973668;28;20423;-68
2022/05/12 04:24:25;;;;;;;13.00;6.87;;;;;;;38.93;42.09;100997.03;4973977;28;20477;-71
2022/05/12 04:26:51;;;;;;;14.70;6.30;;;;;;;38.95;42.07;100999.41;4973470;28;20410;-71
2022/05/12 04:29:17;;;;;;;16.00;6.53;;;;;;;38.93;42.09;100996.22;4972985;28;20430;-71
2022/05/12 04:31:43;;;;;;;10.03;5.80;;;;;;;38.83;42.48;100993.75;4974688;28;20407;-68
2022/05/12 04:36:54;;;;;;;16.00;4.83;;;;;;;38.69;42.78;100989.16;4973748;28;20777;-68
2022/05/12 04:39:20;;;;;;;12.60;5.63;;;;;;;38.77;42.64;100982.22;4973312;28;20460;-68
2022/05/12 04:41:46;;;;;;;17.43;8.60;;;;;;;38.78;42.67;100989.25;4974426;28;20406;-69
2022/05/12 04:44:13;;;;;;;15.40;5.70;;;;;;;38.65;42.66;100985.47;4972820;28;20869;-70
2022/05/12 04:46:41;;;;;;;10.80;5.50;;;;;;;38.62;42.92;100988.81;4957092;28;20798;-71
2022/05/12 04:49:09;;;;;;;15.80;5.40;;;;;;;38.73;42.51;101000.22;4956889;28;20517;-69
2022/05/12 04:51:37;;;;;;;10.77;5.83;;;;;;;38.67;42.56;101004.97;4973020;28;20433;-70
2022/05/12 04:54:06;;;;;;;19.40;6.73;;;;;;;38.73;42.29;100999.41;4972826;28;20850;-68
2022/05/12 04:56:32;;;;;;;21.73;5.40;;;;;;;38.66;42.25;101003.34;4972961;28;20485;-68
2022/05/12 04:58:58;;;;;;;9.67;6.07;;;;;;;38.73;42.38;101012.97;4956905;28;20477;-70
2022/05/12 05:01:24;;;;;;;14.13;5.60;;;;;;;38.74;42.36;101011.88;4972692;28;20430;-70
2022/05/12 05:03:50;;;;;;;16.83;6.40;;;;;;;38.44;43.12;101011.47;4974115;28;20426;-69
2022/05/12 05:06:16;;;;;;;17.00;6.70;;;;;;;38.51;43.25;101016.47;4972714;28;20429;-69
2022/05/12 05:08:43;;;;;;;18.30;5.53;;;;;;;38.62;43.00;101031.38;4972689;28;20828;-69
2022/05/12 05:11:09;;;;;;;17.90;6.10;;;;;;;38.60;43.32;101030.88;4972679;28;20582;-70
2022/05/12 05:13:35;;;;;;;19.93;6.70;;;;;;;38.63;43.05;101030.28;4973860;28;20453;-71
2022/05/12 05:16:02;;;;;;;13.40;6.30;;;;;;;38.60;41.99;101020.81;4973961;28;20420;-71
2022/05/12 05:18:28;;;;;;;9.20;4.70;;;;;;;38.59;42.14;101034.69;4972497;28;20431;-69
2022/05/12 05:20:54;;;;;;;14.00;5.77;;;;;;;38.56;42.48;101025.28;4972469;28;20430;-71
2022/05/12 05:23:23;;;;;;;21.20;9.40;;;;;;;38.65;42.61;101034.25;4973780;28;20469;-70
2022/05/12 05:25:50;;;;;;;16.37;8.70;;;;;;;38.49;42.86;101041.16;4973781;28;20437;-69
2022/05/12 05:28:17;;;;;;;20.73;6.80;;;;;;;38.67;42.51;101047.50;4956504;28;20517;-69
2022/05/12 05:30:43;;;;;;;23.80;9.60;;;;;;;38.81;42.44;101056.44;4972145;28;20458;-69
2022/05/12 05:33:10;;;;;;;19.43;5.40;;;;;;;38.85;42.20;101051.19;4956199;28;20522;-69
2022/05/12 05:35:36;;;;;;;15.23;6.27;;;;;;;38.70;42.79;101058.56;4971802;28;20445;-68
2022/05/12 05:38:03;;;;;;;18.87;7.93;;;;;;;38.71;43.11;101072.91;4972190;28;20923;-72
2022/05/12 05:40:29;;;;;;;14.93;7.13;;;;;;;38.77;43.05;101089.91;4971529;28;20508;-68
2022/05/12 05:42:56;;;;;;;16.70;7.50;;;;;;;38.60;43.42;101093.22;4971343;28;20462;-68
2022/05/12 05:45:23;;;;;;;16.37;9.13;;;;;;;38.63;43.67;101096.13;4972191;28;20418;-70
2022/05/12 05:47:54;;;;;;;12.33;6.57;;;;;;;38.72;43.10;101104.38;4971873;28;20845;-70
2022/05/12 05:50:23;;;;;;;11.87;5.60;;;;;;;38.59;43.51;101097.84;4972065;28;20418;-68
2022/05/12 05:55:34;;;;;;;12.70;6.20;;;;;;;38.68;43.48;101104.16;4973096;28;20501;-71
2022/05/12 05:58:01;;;;;;;14.70;6.83;;;;;;;38.78;43.22;101099.63;4971890;28;20843;-68
2022/05/12 06:00:31;;;;;;;12.10;5.87;;;;;;;38.87;43.33;101101.31;4972711;28;20434;-68
2022/05/12 06:02:58;;;;;;;24.10;7.43;;;;;;;38.88;43.26;101102.91;4953778;28;20978;-70
2022/05/12 06:05:24;;;;;;;12.70;7.00;;;;;;;39.00;43.14;101107.78;4979038;28;20410;-68
2022/05/12 06:07:53;;;;;;;12.53;7.37;;;;;;;38.88;43.12;101110.25;4972692;28;20500;-69
2022/05/12 06:10:19;;;;;;;19.30;6.10;;;;;;;38.70;43.12;101118.19;4970702;28;20533;-69
2022/05/12 06:12:46;;;;;;;13.90;5.43;;;;;;;38.75;43.32;101124.66;4969235;28;20486;-69
2022/05/12 06:15:13;;;;;;;17.40;6.80;;;;;;;38.92;42.32;101124.81;4966421;28;20466;-70
2022/05/12 06:17:39;;;;;;;21.43;7.83;;;;;;;38.77;42.80;101127.84;4968867;28;20518;-69
2022/05/12 06:20:06;;;;;;;18.57;7.37;;;;;;;38.81;43.00;101134.28;4964984;28;20490;-69
2022/05/12 06:22:33;;;;;;;17.77;6.07;;;;;;;38.83;43.13;101141.00;4975926;28;20889;-69
2022/05/12 06:24:59;;;;;;;14.33;5.70;;;;;;;38.79;42.79;101147.31;4987687;28;20839;-70
2022/05/12 06:27:25;;;;;;;11.03;5.40;;;;;;;38.88;42.65;101151.72;4972148;28;20473;-69
2022/05/12 06:29:51;;;;;;;13.10;6.20;;;;;;;38.94;42.48;101155.94;4969591;28;20488;-71
2022/05/12 06:32:19;;;;;;;13.40;5.80;;;;;;;39.00;42.60;101167.47;4970045;28;20521;-69
2022/05/12 06:34:46;;;;;;;13.67;7.20;;;;;;;39.10;42.15;101164.53;4969526;28;20464;-69
2022/05/12 06:37:12;;;;;;;13.90;5.90;;;;;;;39.00;42.42;101159.34;4969685;28;20434;-70
2022/05/12 06:39:39;;;;;;;15.27;5.23;;;;;;;39.09;42.46;101162.91;4969828;28;20438;-70
2022/05/12 06:42:06;;;;;;;21.27;7.73;;;;;;;39.18;42.52;101168.44;4969715;28;20433;-71
2022/05/12 06:44:34;;;;;;;18.53;7.03;;;;;;;39.25;42.17;101173.44;4990700;28;20570;-69
2022/05/12 06:47:00;;;;;;;22.83;7.13;;;;;;;39.29;41.74;101161.66;4977902;28;20425;-69
2022/05/12 06:49:27;;;;;;;22.83;7.47;;;;;;;39.27;41.81;101160.34;4982612;28;20810;-69
2022/05/12 06:51:55;;;;;;;22.63;6.70;;;;;;;39.22;41.91;101162.06;4984572;28;20455;-69
2022/05/12 06:54:22;;;;;;;18.13;7.63;;;;;;;39.15;42.19;101163.59;4983240;28;20465;-68
2022/05/12 06:56:48;;;;;;;20.70;11.47;;;;;;;39.12;42.20;101164.22;5005117;28;20412;-70
2022/05/12 06:59:15;;;;;;;22.10;6.90;;;;;;;39.16;42.38;101167.94;4986590;28;20417;-71
2022/05/12 07:01:41;;;;;;;13.13;7.43;;;;;;;39.14;42.45;101180.97;4975691;28;20480;-71
2022/05/12 07:04:07;;;;;;;27.53;8.60;;;;;;;39.17;42.23;101191.25;4977582;28;20771;-71
2022/05/12 07:06:33;;;;;;;17.53;8.20;;;;;;;39.21;42.34;101197.66;4977671;28;20430;-69
2022/05/12 07:08:59;;;;;;;17.77;9.40;;;;;;;39.24;42.30;101202.50;4994990;28;20417;-69
2022/05/12 07:11:25;;;;;;;12.10;7.10;;;;;;;39.27;42.29;101201.88;4994921;28;20845;-69
2022/05/12 07:13:51;;;;;;;12.97;6.07;;;;;;;39.28;42.64;101197.22;4994982;28;20991;-68
2022/05/12 07:16:18;;;;;;;14.33;6.23;;;;;;;39.32;42.72;101193.59;4977457;28;20436;-68
2022/05/12 07:18:44;;;;;;;11.57;6.83;;;;;;;39.17;43.30;101204.84;4977369;28;20453;-71
2022/05/12 07:26:42;;;;;;;31.30;13.00;;;;;;;39.19;43.20;101218.88;4992433;28;20409;-68
2022/05/12 07:29:15;;;;;;;21.87;7.07;;;;;;;39.30;43.02;101222.97;4977881;28;20421;-70
2022/05/12 07:31:42;;;;;;;20.67;5.93;;;;;;;39.27;43.22;101220.06;4977505;28;20437;-70
2022/05/12 07:34:09;;;;;;;16.33;8.87;;;;;;;39.28;42.52;101230.59;4980770;28;20477;-69
2022/05/12 07:36:38;;;;;;;15.23;7.67;;;;;;;39.24;42.79;101237.78;4982487;28;20425;-69
2022/05/12 07:39:05;;;;;;;11.30;6.37;;;;;;;39.20;42.84;101239.47;4984941;28;20414;-69
2022/05/12 07:41:32;;;;;;;24.73;7.97;;;;;;;39.23;42.77;101242.41;4986869;28;20811;-68
2022/05/12 07:43:59;;;;;;;16.93;8.17;;;;;;;39.24;42.95;101254.06;4982209;28;20471;-70
2022/05/12 07:46:28;;;;;;;27.20;7.03;;;;;;;39.25;42.88;101257.56;4981890;28;20914;-68
2022/05/12 07:48:54;;;;;;;17.13;6.40;;;;;;;39.29;43.02;101261.25;4982245;28;20445;-69
2022/05/12 07:51:21;;;;;;;14.43;7.10;;;;;;;39.32;42.57;101268.78;4974469;28;20426;-67
2022/05/12 07:53:49;;;;;;;17.20;7.30;;;;;;;39.34;42.16;101263.84;4954257;29;21045;-67
2022/05/12 07:56:17;;;;;;;17.80;7.97;;;;;;;39.45;42.55;101273.38;4954662;29;20474;-71
2022/05/12 07:58:45;;;;;;;20.27;7.23;;;;;;;39.38;42.70;101276.50;4954512;29;21030;-70
2022/05/12 08:01:12;;;;;;;14.30;5.80;;;;;;;39.34;42.90;101288.28;4954592;29;20511;-69
2022/05/12 08:03:39;;;;;;;12.37;9.27;;;;;;;39.25;42.98;101287.41;4973342;28;20450;-69
2022/05/12 08:06:07;;;;;;;20.13;7.30;;;;;;;39.32;42.77;101287.78;4978087;28;20480;-69
2022/05/12 08:08:35;;;;;;;13.33;5.80;;;;;;;39.23;42.98;101283.09;4983900;28;20418;-68
2022/05/12 08:11:03;;;;;;;9.90;5.10;;;;;;;39.11;43.11;101279.28;4983051;28;20994;-68
2022/05/12 08:13:29;;;;;;;14.43;6.93;;;;;;;39.27;42.91;101285.19;4982334;28;20521;-71
2022/05/12 08:15:55;;;;;;;17.30;7.10;;;;;;;39.25;43.39;101284.69;4984014;28;20425;-71
2022/05/12 08:18:24;;;;;;;14.33;7.37;;;;;;;39.32;43.13;101290.50;4992887;28;20401;-69
2022/05/12 08:20:50;;;;;;;12.90;6.60;;;;;;;39.21;43.09;101290.72;4983964;28;20457;-68
2022/05/12 08:23:17;;;;;;;13.93;6.03;;;;;;;39.14;43.40;101287.59;4987908;28;20464;-71
2022/05/12 08:25:44;;;;;;;11.50;6.00;;;;;;;39.12;43.22;101286.31;4992835;28;20413;-69
2022/05/12 08:28:13;;;;;;;20.57;6.50;;;;;;;39.20;42.91;101285.59;4992845;28;20418;-69
2022/05/12 08:30:40;;;;;;;18.93;9.33;;;;;;;39.34;42.71;101299.13;4989539;28;20426;-69
2022/05/12 08:33:06;;;;;;;16.07;7.87;;;;;;;39.40;42.30;101297.91;4992812;28;20472;-68
2022/05/12 08:35:32;;;;;;;12.20;5.43;;;;;;;39.43;42.39;101287.25;4992817;28;20468;-69
2022/05/12 08:37:58;;;;;;;11.40;7.10;;;;;;;39.45;42.22;101305.94;4992306;28;20918;-68
2022/05/12 08:40:36;;;;;;;9.27;5.47;;;;;;;39.22;42.41;101308.59;4982006;28;20461;-68
2022/05/12 08:43:29;;;;;;;18.27;8.40;;;;;;;39.20;42.24;101313.53;4978523;28;20466;-71
2022/05/12 08:46:02;;;;;;;8.77;5.17;;;;;;;39.29;42.02;101301.97;4974720;28;20422;-69
2022/05/12 08:48:28;;;;;;;15.07;5.83;;;;;;;39.50;42.09;101303.91;4983456;28;20480;-71
2022/05/12 08:50:55;;;;;;;9.93;4.50;;;;;;;39.35;42.27;101307.00;4976743;28;20422;-71
2022/05/12 08:53:26;;;;;;;12.43;4.77;;;;;;;39.44;41.70;101304.34;4973105;28;20445;-70
2022/05/12 08:55:56;;;;;;;16.30;6.40;;;;;;;39.26;41.94;101305.31;4973104;28;20468;-72
2022/05/12 08:58:38;;;;;;;10.00;5.47;;;;;;;39.34;41.58;101301.84;4972832;28;20446;-70
2022/05/12 09:01:36;;;;;;;20.73;6.50;;;;;;;39.34;41.35;101307.28;4972834;28;20485;-70
2022/05/12 09:04:09;;;;;;;15.30;6.40;;;;;;;39.32;41.32;101304.88;4972332;28;20978;-70
2022/05/12 09:06:39;;;;;;;16.20;5.30;;;;;;;39.42;41.61;101312.00;4972541;28;20430;-72
2022/05/12 09:09:23;;;;;;;24.53;6.20;;;;;;;39.32;42.73;101312.22;4972762;28;20462;-76
2022/05/12 09:12:02;;;;;;;16.53;5.77;;;;;;;39.29;42.80;101310.09;4972724;28;20930;-70
2022/05/12 09:14:43;;;;;;;16.33;5.33;;;;;;;39.46;42.33;101315.69;4941734;28;20466;-70
2022/05/12 09:17:18;;;;;;;9.83;4.60;;;;;;;39.40;41.51;101315.00;4972743;28;20407;-69
2022/05/12 09:19:44;;;;;;;10.67;6.00;;;;;;;39.57;40.88;101310.84;4972370;28;20433;-71
2022/05/12 09:22:11;;;;;;;11.60;6.13;;;;;;;39.72;40.47;101316.75;4972594;28;20411;-71
2022/05/12 09:24:38;;;;;;;12.70;5.40;;;;;;;39.72;40.50;101316.75;4972374;28;20406;-70
2022/05/12 09:27:12;;;;;;;13.53;6.30;;;;;;;39.79;40.04;101315.53;4972572;28;20911;-71
2022/05/12 09:29:49;;;;;;;11.10;5.00;;;;;;;39.81;40.21;101313.28;4972455;28;20418;-70
2022/05/12 09:32:25;;;;;;;15.27;7.00;;;;;;;39.73;40.52;101312.13;4956206;28;20422;-71
2022/05/12 09:35:23;;;;;;;11.73;5.47;;;;;;;39.52;40.04;101322.63;4972170;28;20457;-70
2022/05/12 09:37:51;;;;;;;20.77;6.43;;;;;;;39.58;40.88;101315.16;4972132;28;20426;-72
2022/05/12 09:40:22;;;;;;;13.33;4.63;;;;;;;39.58;40.25;101307.81;4973489;28;20433;-71
2022/05/12 09:42:56;;;;;;;8.90;5.20;;;;;;;39.60;39.72;101293.94;4972018;28;20865;-72
2022/05/12 09:45:35;;;;;;;12.73;4.97;;;;;;;39.59;39.82;101297.75;4971975;28;20878;-70
2022/05/12 09:48:32;;;;;;;15.17;5.23;;;;;;;39.42;40.29;101304.66;4955988;28;20938;-69
2022/05/12 09:51:33;;;;;;;9.27;5.13;;;;;;;39.20;41.30;101315.47;4965109;28;20939;-71
2022/05/12 09:54:23;;;;;;;13.23;5.00;;;;;;;39.32;41.63;101304.06;4962132;28;20461;-71
2022/05/12 09:57:14;;;;;;;16.07;6.67;;;;;;;39.25;41.72;101300.97;4972081;28;20426;-71
2022/05/12 09:59:52;;;;;;;14.40;6.37;;;;;;;39.36;41.26;101296.94;4972200;28;20944;-71
2022/05/12 10:07:53;;;;;;;8.53;5.67;;;;;;;39.59;41.11;101295.03;4971683;28;20437;-72
2022/05/12 10:08:23;;;;;;;14.00;5.80;;;;;;;39.98;40.21;101292.50;4973453;28;20402;-71
2022/05/12 10:10:57;;;;;;;11.30;4.07;;;;;;;40.07;39.96;101292.56;4972050;28;20776;-71
2022/05/12 10:13:46;;;;;;;7.80;4.73;;;;;;;39.88;40.26;101292.72;4971818;28;20422;-71
2022/05/12 10:16:16;;;;;;;9.00;4.77;;;;;;;39.98;40.42;101292.50;4971869;28;20426;-69
2022/05/12 10:18:52;;;;;;;18.43;6.40;;;;;;;40.04;40.11;101282.31;4955564;28;20442;-71
2022/05/12 10:21:26;;;;;;;11.03;5.30;;;;;;;40.09;40.17;101274.03;4973028;28;20564;-70
2022/05/12 10:24:13;;;;;;;8.40;4.90;;;;;;;39.94;39.95;101277.09;4971694;28;20421;-70
2022/05/12 10:26:57;;;;;;;11.83;5.87;;;;;;;39.65;41.00;101277.53;4972929;28;20403;-70
2022/05/12 10:30:02;;;;;;;15.93;5.70;;;;;;;39.92;40.48;101282.06;4975115;28;20508;-70
2022/05/12 10:32:47;;;;;;;10.60;4.80;;;;;;;39.99;40.62;101280.50;4975628;28;20418;-70
2022/05/12 10:35:40;;;;;;;8.73;4.90;;;;;;;39.91;40.51;101277.75;4975359;28;20478;-70
2022/05/12 10:38:22;;;;;;;10.10;5.60;;;;;;;39.90;40.65;101257.94;4970230;28;20794;-70
2022/05/12 10:41:08;;;;;;;10.77;5.47;;;;;;;39.85;40.13;101259.97;4975486;28;20461;-70
2022/05/12 10:43:52;;;;;;;16.83;7.30;;;;;;;40.01;39.11;101248.38;4986298;28;20473;-71
2022/05/12 10:46:42;;;;;;;13.30;5.97;;;;;;;39.85;39.56;101254.53;4996074;28;20464;-70
2022/05/12 10:49:20;;;;;;;8.17;4.03;;;;;;;39.76;39.46;101268.03;4978431;28;20878;-71
2022/05/12 10:51:54;;;;;;;7.20;4.30;;;;;;;39.91;39.70;101264.97;4963295;28;20417;-71
2022/05/12 10:54:27;;;;;;;17.30;5.40;;;;;;;39.97;39.31;101266.44;4978243;28;20457;-71
2022/05/12 10:57:20;;;;;;;8.30;4.50;;;;;;;39.94;39.27;101260.81;4978449;28;20504;-70
2022/05/12 11:00:14;;;;;;;9.83;4.80;;;;;;;40.12;39.34;101262.53;4962681;28;20484;-70
2022/05/12 11:02:44;;;;;;;10.67;5.00;;;;;;;40.31;39.20;101250.63;4978313;28;20498;-71
2022/05/12 11:05:22;;;;;;;10.87;5.77;;;;;;;40.12;39.75;101243.53;4978153;28;20433;-70
2022/05/12 11:08:11;;;;;;;13.50;6.70;;;;;;;40.15;40.29;101234.75;4978179;28;20779;-70
2022/05/12 11:10:46;;;;;;;14.83;5.57;;;;;;;40.21;39.75;101238.13;4978086;28;20425;-71
2022/05/12 11:13:40;;;;;;;10.30;5.67;;;;;;;40.17;39.63;101248.03;4977936;28;20537;-70
2022/05/12 11:16:14;;;;;;;10.23;5.13;;;;;;;40.27;39.05;101243.13;4977921;28;20433;-71
2022/05/12 11:18:59;;;;;;;17.63;4.87;;;;;;;40.34;39.79;101242.66;4977928;28;20957;-70
2022/05/12 11:21:29;;;;;;;10.50;5.20;;;;;;;40.31;39.68;101237.03;4977754;28;20445;-70
2022/05/12 11:24:13;;;;;;;9.20;4.40;;;;;;;40.26;40.04;101237.97;4995351;28;20393;-71
2022/05/12 11:26:52;;;;;;;11.10;5.73;;;;;;;40.35;40.18;101238.81;4977831;28;20409;-70
2022/05/12 11:29:44;;;;;;;10.17;5.10;;;;;;;40.40;40.49;101229.75;4962503;28;20425;-70
2022/05/12 11:32:19;;;;;;;12.13;6.10;;;;;;;40.31;40.84;101231.59;4968327;28;20426;-70
2022/05/12 11:34:50;;;;;;;12.57;5.73;;;;;;;40.36;40.67;101220.59;4977385;28;20465;-70
2022/05/12 11:37:43;;;;;;;15.10;5.73;;;;;;;40.31;41.86;101224.25;4977713;28;20504;-71
2022/05/12 11:40:12;;;;;;;16.80;6.43;;;;;;;40.39;41.63;101214.50;4976611;28;20495;-71
2022/05/12 11:45:48;;;;;;;12.00;4.70;;;;;;;40.53;41.11;101202.44;4995306;28;20424;-71
2022/05/12 11:48:55;;;;;;;12.13;5.53;;;;;;;40.47;41.14;101187.41;4977515;28;20524;-69